Time;durP1;ratioP1;P1;durP2;ratioP2;P2;SDS_P1;SDS_P2;PMS_P1;PMS_P2;Temp;Humidity;BMP_temperature;BMP_pressure;BME280_temperature;BME280_humidity;BME280_pressure;Samples;Min_cycle;Max_cycle;Signal;HPM_P1;HPM_P2
2022/01/17 00:01:51;;;;;;;4.82;3.38;;;17.90;55.20;;;;;;4945792;28;20565;-58
2022/01/17 00:04:17;;;;;;;6.10;3.45;;;17.90;55.20;;;;;;4943719;28;20031;-59
2022/01/17 00:06:43;;;;;;;7.10;3.90;;;17.90;55.20;;;;;;4943357;28;20469;-56
2022/01/17 00:09:09;;;;;;;4.03;3.10;;;17.90;55.20;;;;;;4943197;28;20027;-57
2022/01/17 00:11:37;;;;;;;5.85;4.10;;;17.90;55.10;;;;;;4943696;28;20027;-59
2022/01/17 00:14:05;;;;;;;4.22;3.25;;;17.90;55.00;;;;;;4942597;28;20035;-60
2022/01/17 00:16:41;;;;;;;5.20;3.75;;;17.90;55.00;;;;;;4945159;28;20038;-59
2022/01/17 00:21:44;;;;;;;4.55;3.42;;;17.90;55.00;;;;;;4943952;28;20046;-61
2022/01/17 00:24:09;;;;;;;3.80;3.30;;;17.90;55.10;;;;;;4942410;28;20039;-59
2022/01/17 00:26:35;;;;;;;3.83;3.22;;;17.80;55.20;;;;;;4942336;28;20468;-59
2022/01/17 00:29:00;;;;;;;4.47;3.42;;;17.80;55.40;;;;;;4943109;28;20027;-59
2022/01/17 00:31:26;;;;;;;5.35;3.40;;;17.80;55.60;;;;;;4943715;28;20026;-60
2022/01/17 00:33:51;;;;;;;4.60;3.42;;;17.80;55.70;;;;;;4943262;28;20039;-57
2022/01/17 00:36:17;;;;;;;4.82;3.50;;;17.70;55.70;;;;;;4943882;28;21862;-58
2022/01/17 00:38:42;;;;;;;5.50;3.83;;;17.80;56.40;;;;;;4943118;28;20059;-58
2022/01/17 00:41:08;;;;;;;4.70;3.28;;;17.80;55.80;;;;;;4945438;28;20062;-58
2022/01/17 00:43:35;;;;;;;3.95;3.30;;;17.70;55.80;;;;;;4941441;28;20516;-58
2022/01/17 00:46:00;;;;;;;4.05;3.40;;;17.80;55.80;;;;;;4945836;28;20081;-59
2022/01/17 00:48:26;;;;;;;4.57;3.10;;;17.80;56.50;;;;;;4942077;28;20524;-57
2022/01/17 00:50:51;;;;;;;3.65;3.22;;;17.80;55.80;;;;;;4943998;28;20082;-60
2022/01/17 00:53:17;;;;;;;5.53;3.40;;;17.80;55.90;;;;;;4943339;28;20074;-60
2022/01/17 00:55:42;;;;;;;4.00;2.80;;;17.80;55.90;;;;;;4985191;23;20507;-58
2022/01/17 00:58:08;;;;;;;3.88;2.70;;;17.80;55.80;;;;;;4999200;28;20042;-57
2022/01/17 01:00:33;;;;;;;3.88;3.35;;;17.80;55.80;;;;;;4992839;28;20041;-57
2022/01/17 01:02:59;;;;;;;3.95;3.17;;;17.80;55.70;;;;;;4988966;28;20061;-57
2022/01/17 01:05:24;;;;;;;4.15;3.17;;;17.80;55.70;;;;;;4985811;28;20112;-57
2022/01/17 01:07:51;;;;;;;3.83;3.10;;;17.80;56.20;;;;;;4967031;28;20122;-57
2022/01/17 01:10:16;;;;;;;4.22;2.88;;;17.80;55.50;;;;;;4981432;28;20030;-57
2022/01/17 01:12:44;;;;;;;3.63;3.08;;;17.90;55.40;;;;;;4960978;28;20026;-55
2022/01/17 01:15:13;;;;;;;3.70;3.10;;;17.80;55.40;;;;;;4970281;28;20023;-56
2022/01/17 01:17:54;;;;;;;3.45;2.80;;;17.80;55.40;;;;;;4968618;28;20048;-56
2022/01/17 01:28:50;;;;;;;3.53;2.75;;;17.80;55.40;;;;;;4969619;28;20033;-55
2022/01/17 01:31:21;;;;;;;6.00;2.80;;;17.80;55.50;;;;;;4978275;28;20031;-54
2022/01/17 01:33:54;;;;;;;3.72;2.83;;;17.80;55.50;;;;;;4974196;28;20073;-58
2022/01/17 01:36:26;;;;;;;3.78;2.88;;;17.80;55.50;;;;;;4973127;28;20106;-56
2022/01/17 01:38:52;;;;;;;3.47;2.72;;;17.80;55.50;;;;;;4971347;28;20047;-54
2022/01/17 01:41:17;;;;;;;3.67;2.90;;;17.80;55.40;;;;;;4971855;28;20041;-57
2022/01/17 01:43:43;;;;;;;3.75;2.80;;;17.80;55.30;;;;;;4974807;28;20045;-56
2022/01/17 01:46:10;;;;;;;3.42;2.80;;;17.90;55.30;;;;;;4973702;28;20709;-58
2022/01/17 01:48:36;;;;;;;4.00;2.83;;;17.80;55.30;;;;;;4973700;28;20121;-57
2022/01/17 01:51:02;;;;;;;3.40;2.50;;;17.80;55.40;;;;;;4965536;28;20600;-58
2022/01/17 01:53:28;;;;;;;3.22;2.60;;;17.80;55.30;;;;;;4972630;28;20062;-56
2022/01/17 01:55:55;;;;;;;3.38;2.75;;;17.90;55.40;;;;;;4973899;28;20045;-56
2022/01/17 01:58:21;;;;;;;2.90;2.45;;;17.80;55.40;;;;;;4989542;23;20584;-54
2022/01/17 02:00:47;;;;;;;2.97;2.60;;;17.90;55.40;;;;;;4997384;28;20676;-54
2022/01/17 02:03:12;;;;;;;3.25;2.58;;;17.80;55.30;;;;;;5000676;28;20125;-54
2022/01/17 02:05:38;;;;;;;3.33;2.63;;;17.80;55.20;;;;;;4993205;28;20466;-57
2022/01/17 02:08:05;;;;;;;3.30;2.60;;;17.80;55.20;;;;;;4992623;28;20089;-57
2022/01/17 02:10:31;;;;;;;3.45;3.10;;;17.80;55.20;;;;;;4993903;28;20045;-56
2022/01/17 02:12:56;;;;;;;3.38;2.60;;;17.80;55.20;;;;;;4988351;28;20050;-56
2022/01/17 02:15:22;;;;;;;4.45;2.47;;;17.90;55.10;;;;;;4992559;28;20033;-57
2022/01/17 02:17:53;;;;;;;2.90;2.38;;;17.90;55.10;;;;;;4999630;28;20026;-54
2022/01/17 02:20:21;;;;;;;2.75;2.42;;;17.80;55.00;;;;;;4992982;28;20026;-53
2022/01/17 02:22:47;;;;;;;3.03;2.65;;;17.80;55.00;;;;;;4991047;28;20026;-54
2022/01/17 02:25:12;;;;;;;4.22;2.90;;;17.80;55.00;;;;;;4982989;28;20031;-57
2022/01/17 02:27:38;;;;;;;3.17;2.35;;;17.80;54.90;;;;;;4985307;28;20525;-56
2022/01/17 02:30:05;;;;;;;2.90;2.20;;;17.80;54.90;;;;;;4994729;28;20038;-55
2022/01/17 02:32:30;;;;;;;4.45;2.92;;;17.80;54.80;;;;;;4995859;28;20551;-55
2022/01/17 02:35:15;;;;;;;3.50;2.40;;;17.80;54.90;;;;;;4990751;28;20113;-56
2022/01/17 02:37:41;;;;;;;4.57;2.60;;;17.80;54.90;;;;;;4986472;28;20084;-57
2022/01/17 02:40:07;;;;;;;4.03;2.63;;;17.80;54.80;;;;;;4999574;28;20443;-54
2022/01/17 02:42:34;;;;;;;2.80;2.35;;;17.80;54.60;;;;;;4995266;28;20030;-56
2022/01/17 02:45:09;;;;;;;2.90;2.45;;;17.70;54.60;;;;;;5002023;28;20491;-54
2022/01/17 02:47:34;;;;;;;2.55;2.33;;;17.80;54.70;;;;;;4986198;28;20023;-53
2022/01/17 02:50:00;;;;;;;2.70;2.05;;;17.70;54.70;;;;;;4995030;28;20041;-55
2022/01/17 02:52:25;;;;;;;2.67;2.08;;;17.70;54.90;;;;;;4994092;28;20053;-57
2022/01/17 02:54:51;;;;;;;3.28;2.72;;;17.70;55.00;;;;;;4993161;28;20491;-56
2022/01/17 02:57:16;;;;;;;2.60;2.40;;;17.70;55.10;;;;;;4997061;28;20023;-56
2022/01/17 02:59:42;;;;;;;2.60;2.17;;;17.60;55.10;;;;;;4992336;28;20109;-57
2022/01/17 03:02:07;;;;;;;2.45;2.13;;;17.70;55.20;;;;;;4996128;28;20038;-55
2022/01/17 03:04:33;;;;;;;1.98;1.77;;;17.70;55.20;;;;;;4995726;28;20034;-53
2022/01/17 03:06:59;;;;;;;3.13;2.53;;;17.70;55.20;;;;;;4991952;28;20880;-54
2022/01/17 03:09:26;;;;;;;3.05;2.20;;;17.70;55.20;;;;;;4985379;28;20018;-54
2022/01/17 03:11:52;;;;;;;2.45;2.10;;;17.70;55.20;;;;;;4987632;28;20044;-56
2022/01/17 03:14:17;;;;;;;3.65;2.13;;;17.70;55.20;;;;;;4995591;28;20034;-55
2022/01/17 03:16:47;;;;;;;2.78;2.45;;;17.70;55.30;;;;;;4999127;28;20119;-56
2022/01/17 03:19:12;;;;;;;2.63;2.40;;;17.70;55.20;;;;;;4986666;28;20042;-55
2022/01/17 03:21:38;;;;;;;2.25;1.95;;;17.70;55.30;;;;;;4990943;28;20544;-53
2022/01/17 03:24:03;;;;;;;3.00;2.15;;;17.60;55.20;;;;;;4989804;28;20661;-55
2022/01/17 03:26:30;;;;;;;3.13;2.00;;;17.70;55.30;;;;;;4995273;28;20033;-57
2022/01/17 03:29:00;;;;;;;2.90;2.10;;;17.60;55.20;;;;;;4986457;28;20044;-58
2022/01/17 03:31:25;;;;;;;2.05;1.83;;;17.60;55.30;;;;;;4973877;28;20034;-58
2022/01/17 03:33:51;;;;;;;2.42;1.92;;;17.60;55.20;;;;;;4990938;28;20042;-56
2022/01/17 03:36:16;;;;;;;3.40;2.33;;;17.70;55.40;;;;;;4992152;28;20073;-54
2022/01/17 03:38:42;;;;;;;2.42;1.80;;;17.60;55.30;;;;;;4994766;28;20729;-57
2022/01/17 03:41:08;;;;;;;2.47;2.20;;;17.60;55.30;;;;;;4981357;28;20034;-58
2022/01/17 03:43:34;;;;;;;2.10;1.95;;;17.60;55.30;;;;;;4996188;28;20604;-57
2022/01/17 03:45:59;;;;;;;2.35;1.95;;;17.60;55.40;;;;;;4984399;28;20042;-57
2022/01/17 03:48:25;;;;;;;2.08;1.60;;;17.60;55.40;;;;;;4986919;28;20122;-57
2022/01/17 03:50:51;;;;;;;3.25;2.10;;;17.60;55.40;;;;;;4998579;28;20048;-55
2022/01/17 03:53:17;;;;;;;2.80;2.20;;;17.60;55.50;;;;;;4997875;28;21445;-56
2022/01/17 03:55:42;;;;;;;3.08;1.67;;;17.60;55.40;;;;;;4988855;28;20038;-58
2022/01/17 03:58:08;;;;;;;2.00;1.80;;;17.60;55.40;;;;;;5000328;28;20531;-53
2022/01/17 04:00:37;;;;;;;3.35;2.10;;;17.60;55.30;;;;;;4993549;28;20575;-54
2022/01/17 04:03:02;;;;;;;3.10;1.80;;;17.60;55.30;;;;;;4988495;28;20052;-57
2022/01/17 04:05:28;;;;;;;3.17;1.77;;;17.60;55.40;;;;;;4993632;28;20030;-55
2022/01/17 04:07:53;;;;;;;3.45;2.20;;;17.60;55.30;;;;;;4982677;28;20035;-57
2022/01/17 04:10:19;;;;;;;3.00;2.10;;;17.60;55.30;;;;;;4991749;28;20033;-56
2022/01/17 04:12:44;;;;;;;2.00;1.80;;;17.60;55.20;;;;;;4992613;28;20057;-56
2022/01/17 04:15:10;;;;;;;2.05;1.85;;;17.50;55.00;;;;;;4972413;28;20622;-57
2022/01/17 04:17:36;;;;;;;2.90;2.05;;;17.60;55.10;;;;;;5001381;28;20037;-58
2022/01/17 04:20:08;;;;;;;2.47;1.90;;;17.60;55.00;;;;;;4971507;28;20030;-58
2022/01/17 04:22:37;;;;;;;1.63;1.52;;;17.60;55.00;;;;;;4983358;28;20116;-58
2022/01/17 04:25:03;;;;;;;2.40;2.00;;;17.60;54.90;;;;;;4985351;28;20043;-55
2022/01/17 04:27:28;;;;;;;2.22;1.75;;;17.50;54.80;;;;;;4989545;28;20145;-58
2022/01/17 04:29:54;;;;;;;1.90;1.70;;;17.60;54.70;;;;;;4974993;28;20031;-53
2022/01/17 04:32:19;;;;;;;2.80;1.90;;;17.50;54.60;;;;;;4989473;28;20093;-58
2022/01/17 04:34:45;;;;;;;4.10;1.80;;;17.60;54.60;;;;;;4987537;28;20378;-56
2022/01/17 04:37:10;;;;;;;2.17;1.70;;;17.60;54.60;;;;;;4981796;28;20498;-59
2022/01/17 04:39:36;;;;;;;2.13;1.73;;;17.60;54.50;;;;;;4967456;28;20027;-56
2022/01/17 04:42:10;;;;;;;1.95;1.63;;;17.60;54.40;;;;;;4990567;28;20030;-56
2022/01/17 04:47:20;;;;;;;1.77;1.30;;;17.60;54.20;;;;;;4987004;28;20029;-58
2022/01/17 04:49:45;;;;;;;2.10;1.67;;;17.60;54.70;;;;;;4983677;28;20025;-54
2022/01/17 04:52:13;;;;;;;2.28;1.75;;;17.60;54.10;;;;;;4996914;28;20045;-54
2022/01/17 04:54:40;;;;;;;2.20;1.63;;;17.60;54.10;;;;;;4979113;28;20245;-56
2022/01/17 04:57:10;;;;;;;2.97;2.65;;;17.70;54.10;;;;;;4994448;28;20121;-55
2022/01/17 04:59:35;;;;;;;2.60;2.05;;;17.70;53.90;;;;;;4981055;28;20049;-55
2022/01/17 05:02:01;;;;;;;2.78;1.67;;;17.80;53.80;;;;;;4982160;28;20038;-56
2022/01/17 05:04:26;;;;;;;2.63;1.70;;;17.80;53.70;;;;;;5001586;28;20041;-56
2022/01/17 05:06:52;;;;;;;2.00;1.70;;;17.80;53.50;;;;;;5001663;28;20034;-56
2022/01/17 05:09:17;;;;;;;1.45;1.25;;;17.80;53.50;;;;;;4977790;28;20467;-54
2022/01/17 05:11:43;;;;;;;3.03;2.10;;;17.80;53.50;;;;;;4989290;28;20214;-58
2022/01/17 05:14:09;;;;;;;2.13;1.40;;;17.80;53.40;;;;;;5000372;28;20133;-57
2022/01/17 05:16:41;;;;;;;1.70;1.30;;;17.80;53.30;;;;;;4990457;28;20751;-59
2022/01/17 05:21:50;;;;;;;2.63;1.48;;;17.90;53.40;;;;;;4998345;28;20036;-57
2022/01/17 05:24:16;;;;;;;1.67;1.58;;;17.90;53.30;;;;;;4998879;28;20034;-56
2022/01/17 05:26:41;;;;;;;3.22;1.70;;;17.90;53.30;;;;;;4995921;28;20037;-57
2022/01/17 05:29:07;;;;;;;1.63;1.45;;;17.90;53.20;;;;;;4984314;28;20647;-54
2022/01/17 05:31:32;;;;;;;1.50;1.40;;;17.90;53.20;;;;;;5004330;28;20491;-51
2022/01/17 05:33:58;;;;;;;1.90;1.33;;;17.90;53.10;;;;;;5001340;28;20104;-57
2022/01/17 05:36:23;;;;;;;1.70;1.60;;;17.90;53.10;;;;;;5006639;28;20435;-60
2022/01/17 05:38:49;;;;;;;2.75;1.42;;;17.90;53.10;;;;;;4999562;28;20451;-53
2022/01/17 05:41:14;;;;;;;1.35;1.25;;;17.90;53.10;;;;;;4989031;28;20030;-58
2022/01/17 05:43:40;;;;;;;1.83;1.15;;;17.90;53.00;;;;;;4991955;28;20088;-57
2022/01/17 05:46:05;;;;;;;1.95;1.38;;;17.90;53.00;;;;;;4972042;28;20069;-56
2022/01/17 05:48:31;;;;;;;2.05;1.50;;;17.90;53.20;;;;;;4997970;28;20034;-59
2022/01/17 05:50:56;;;;;;;1.95;1.55;;;17.90;53.30;;;;;;4985758;28;20503;-57
2022/01/17 05:53:22;;;;;;;1.48;1.35;;;17.80;53.50;;;;;;4991911;28;20034;-55
2022/01/17 05:55:47;;;;;;;2.28;1.10;;;17.80;53.60;;;;;;4997321;28;20038;-57
2022/01/17 05:58:13;;;;;;;1.10;0.98;;;17.80;53.60;;;;;;4999458;28;20513;-56
2022/01/17 06:00:38;;;;;;;1.33;0.98;;;17.80;53.70;;;;;;4989690;28;20058;-56
2022/01/17 06:03:04;;;;;;;2.28;1.42;;;17.80;54.40;;;;;;5002607;28;20030;-56
2022/01/17 06:05:29;;;;;;;1.73;1.15;;;17.80;53.80;;;;;;4997951;28;20064;-56
2022/01/17 06:07:55;;;;;;;3.05;1.50;;;17.80;53.80;;;;;;4994523;28;20026;-54
2022/01/17 06:10:20;;;;;;;1.30;1.20;;;17.80;53.90;;;;;;4980145;28;20070;-56
2022/01/17 06:12:46;;;;;;;1.80;1.10;;;17.80;53.90;;;;;;4993345;28;20061;-59
2022/01/17 06:15:11;;;;;;;1.10;0.90;;;17.80;53.90;;;;;;4991045;28;20109;-56
2022/01/17 06:17:37;;;;;;;2.03;1.05;;;17.80;53.90;;;;;;4989981;28;20508;-54
2022/01/17 06:20:04;;;;;;;2.50;1.20;;;17.80;53.90;;;;;;4992762;28;20027;-59
2022/01/17 06:22:30;;;;;;;3.03;1.17;;;17.80;54.00;;;;;;4997140;28;20412;-59
2022/01/17 06:24:55;;;;;;;1.67;1.10;;;17.80;54.00;;;;;;4993330;28;20041;-53
2022/01/17 06:27:21;;;;;;;2.45;1.08;;;17.80;54.10;;;;;;4991370;28;20247;-58
2022/01/17 06:29:46;;;;;;;2.63;1.33;;;17.80;54.10;;;;;;4986148;28;20036;-60
2022/01/17 06:32:12;;;;;;;1.58;1.20;;;17.80;54.10;;;;;;4986589;28;20030;-54
2022/01/17 06:34:37;;;;;;;2.33;1.70;;;17.80;54.10;;;;;;4984836;28;20034;-55
2022/01/17 06:37:03;;;;;;;8.30;5.45;;;17.80;54.10;;;;;;4987496;28;20467;-57
2022/01/17 06:39:28;;;;;;;10.23;4.70;;;17.80;54.10;;;;;;4988965;28;20062;-62
2022/01/17 06:41:54;;;;;;;11.65;5.30;;;17.80;54.10;;;;;;4995425;28;20380;-56
2022/01/17 06:44:19;;;;;;;8.27;5.03;;;17.80;54.10;;;;;;5003953;28;20022;-59
2022/01/17 06:46:45;;;;;;;10.23;5.18;;;17.80;54.10;;;;;;4995496;28;20030;-60
2022/01/17 06:49:10;;;;;;;9.68;5.15;;;17.80;54.00;;;;;;5001929;28;20473;-58
2022/01/17 06:51:36;;;;;;;7.93;4.75;;;17.80;54.60;;;;;;4995123;28;20041;-56
2022/01/17 06:54:02;;;;;;;8.07;4.88;;;17.80;53.90;;;;;;4995295;28;20045;-57
2022/01/17 06:56:27;;;;;;;9.00;5.82;;;17.80;53.90;;;;;;4998544;28;20512;-54
2022/01/17 06:58:53;;;;;;;10.35;6.50;;;17.80;53.90;;;;;;4982672;28;20046;-55
2022/01/17 07:01:20;;;;;;;10.38;5.95;;;17.80;53.90;;;;;;4986221;28;20026;-54
2022/01/17 07:03:45;;;;;;;11.57;6.93;;;17.80;53.90;;;;;;4988109;28;20037;-58
2022/01/17 07:06:11;;;;;;;11.90;7.80;;;17.80;53.90;;;;;;4984884;28;20027;-54
2022/01/17 07:08:36;;;;;;;13.82;8.32;;;17.90;54.20;;;;;;4991870;28;20029;-56
2022/01/17 07:11:02;;;;;;;11.85;7.47;;;17.80;54.30;;;;;;4989076;28;20419;-59
2022/01/17 07:13:27;;;;;;;12.35;7.65;;;17.80;54.30;;;;;;4991392;28;20049;-58
2022/01/17 07:15:53;;;;;;;16.45;8.02;;;17.80;54.30;;;;;;4995119;28;20049;-54
2022/01/17 07:18:18;;;;;;;12.07;8.00;;;17.80;54.20;;;;;;4995561;28;20030;-58
2022/01/17 07:20:44;;;;;;;13.60;6.82;;;17.80;54.10;;;;;;4992162;28;20085;-58
2022/01/17 07:23:09;;;;;;;15.30;8.10;;;17.80;54.10;;;;;;4995475;28;20862;-54
2022/01/17 07:25:38;;;;;;;12.25;7.53;;;17.80;54.00;;;;;;4999337;28;20105;-56
2022/01/17 07:28:05;;;;;;;12.30;6.47;;;17.80;54.00;;;;;;4994264;28;20041;-55
2022/01/17 07:30:31;;;;;;;11.07;6.75;;;17.80;53.80;;;;;;4982656;28;20068;-55
2022/01/17 07:32:56;;;;;;;12.00;6.15;;;17.80;53.80;;;;;;4985274;28;20109;-55
2022/01/17 07:35:22;;;;;;;10.48;6.18;;;17.80;53.70;;;;;;4990509;28;20030;-55
2022/01/17 07:37:47;;;;;;;12.27;6.50;;;17.80;53.60;;;;;;4987345;28;20097;-54
2022/01/17 07:40:13;;;;;;;10.18;6.15;;;17.80;53.50;;;;;;5000252;28;20123;-57
2022/01/17 07:42:38;;;;;;;11.50;5.72;;;17.80;53.40;;;;;;4988118;28;20507;-56
2022/01/17 07:45:13;;;;;;;9.57;5.28;;;17.80;53.40;;;;;;4991993;28;20026;-57
2022/01/17 07:47:42;;;;;;;8.07;5.25;;;17.80;53.30;;;;;;4996089;28;20030;-57
2022/01/17 07:50:16;;;;;;;11.60;5.40;;;17.80;53.20;;;;;;4986261;28;20037;-57
2022/01/17 07:52:42;;;;;;;10.13;5.50;;;17.80;53.20;;;;;;4994179;28;20769;-57
2022/01/17 07:55:08;;;;;;;9.45;5.20;;;17.80;53.00;;;;;;4988322;28;20049;-55
2022/01/17 07:57:34;;;;;;;12.15;4.85;;;17.80;52.70;;;;;;4996822;28;20160;-56
2022/01/17 07:59:59;;;;;;;13.43;5.43;;;17.80;52.40;;;;;;4968539;28;20042;-56
2022/01/17 08:02:25;;;;;;;10.52;4.53;;;17.80;52.10;;;;;;4989622;28;20357;-56
2022/01/17 08:04:50;;;;;;;11.13;4.43;;;17.90;52.10;;;;;;4983984;28;20038;-57
2022/01/17 08:07:16;;;;;;;9.10;4.55;;;17.80;51.90;;;;;;4996649;23;20038;-57
2022/01/17 08:09:41;;;;;;;9.63;4.15;;;17.80;52.00;;;;;;4990364;28;20029;-57
2022/01/17 08:12:08;;;;;;;8.50;4.00;;;17.80;52.00;;;;;;4989563;28;20175;-58
2022/01/17 08:14:34;;;;;;;9.45;3.65;;;17.80;52.00;;;;;;4989094;28;20547;-57
2022/01/17 08:16:59;;;;;;;15.70;7.45;;;17.80;52.10;;;;;;4988705;28;20117;-57
2022/01/17 08:19:25;;;;;;;15.10;7.65;;;17.70;52.50;;;;;;4988714;28;20046;-57
2022/01/17 08:21:52;;;;;;;14.57;6.75;;;17.70;52.70;;;;;;4986042;28;20042;-58
2022/01/17 08:24:20;;;;;;;12.07;6.72;;;17.70;52.70;;;;;;4990478;28;20031;-58
2022/01/17 08:26:46;;;;;;;11.52;6.53;;;17.70;52.70;;;;;;4983487;28;20054;-57
2022/01/17 08:29:12;;;;;;;12.77;6.28;;;17.60;52.70;;;;;;4989830;28;20046;-57
2022/01/17 08:31:37;;;;;;;12.82;7.03;;;17.60;52.80;;;;;;4981964;28;20031;-57
2022/01/17 08:34:03;;;;;;;16.00;7.18;;;17.60;52.80;;;;;;4996320;28;20038;-57
2022/01/17 08:36:28;;;;;;;15.13;6.63;;;17.60;52.90;;;;;;4988614;28;20034;-58
2022/01/17 08:38:54;;;;;;;10.75;5.90;;;17.50;52.90;;;;;;4991781;28;20030;-57
2022/01/17 08:41:20;;;;;;;10.63;5.60;;;17.50;53.00;;;;;;4986827;28;20506;-57
2022/01/17 08:43:46;;;;;;;13.85;6.22;;;17.50;53.10;;;;;;4998404;28;20046;-58
2022/01/17 08:46:12;;;;;;;14.30;6.32;;;17.50;53.10;;;;;;5001518;28;20118;-57
2022/01/17 08:48:38;;;;;;;10.65;5.68;;;17.50;53.20;;;;;;4999259;28;20328;-56
2022/01/17 08:51:04;;;;;;;15.55;5.28;;;17.50;53.20;;;;;;4985839;28;20048;-57
2022/01/17 08:53:29;;;;;;;13.52;5.63;;;17.50;53.60;;;;;;4996170;28;20555;-58
2022/01/17 08:55:55;;;;;;;25.23;9.88;;;17.50;53.70;;;;;;4990584;28;20030;-57
2022/01/17 08:58:20;;;;;;;29.50;13.30;;;17.50;53.90;;;;;;4987944;28;22680;-58
2022/01/17 09:00:46;;;;;;;34.75;15.95;;;17.50;53.90;;;;;;4993183;28;20038;-55
2022/01/17 09:03:13;;;;;;;36.78;16.40;;;17.50;54.10;;;;;;5000112;28;20068;-56
2022/01/17 09:05:38;;;;;;;37.13;17.58;;;17.50;54.10;;;;;;4992632;28;20399;-56
2022/01/17 09:08:04;;;;;;;44.13;18.20;;;17.50;54.30;;;;;;4991639;28;20045;-57
2022/01/17 09:10:30;;;;;;;36.17;16.75;;;17.50;54.40;;;;;;4994599;28;20041;-57
2022/01/17 09:12:56;;;;;;;42.75;17.08;;;17.50;54.40;;;;;;4988174;28;20045;-57
2022/01/17 09:15:22;;;;;;;38.47;16.92;;;17.50;54.40;;;;;;4982350;28;20054;-57
2022/01/17 09:17:48;;;;;;;33.30;16.33;;;17.50;54.40;;;;;;4996359;28;20120;-57
2022/01/17 09:20:13;;;;;;;36.55;15.60;;;17.50;54.40;;;;;;4980993;28;20735;-54
2022/01/17 09:22:39;;;;;;;33.47;16.58;;;17.60;54.40;;;;;;4981134;28;20030;-57
2022/01/17 09:25:06;;;;;;;32.88;15.73;;;17.60;54.30;;;;;;4992828;28;20022;-57
2022/01/17 09:27:35;;;;;;;34.08;14.88;;;17.60;54.20;;;;;;4987389;28;20121;-58
2022/01/17 09:30:05;;;;;;;32.38;12.95;;;17.70;54.10;;;;;;4983501;28;20606;-58
2022/01/17 09:32:31;;;;;;;31.30;14.77;;;17.70;54.00;;;;;;4995467;28;21247;-56
2022/01/17 09:34:56;;;;;;;35.15;14.95;;;17.80;53.90;;;;;;4982584;28;20592;-57
2022/01/17 09:37:22;;;;;;;27.05;12.65;;;17.80;53.80;;;;;;4987054;28;20058;-56
2022/01/17 09:39:47;;;;;;;26.40;11.35;;;17.80;53.80;;;;;;4981140;28;20038;-57
2022/01/17 09:42:13;;;;;;;22.67;12.07;;;17.70;53.80;;;;;;4985655;28;20037;-57
2022/01/17 09:44:38;;;;;;;26.33;11.43;;;17.70;53.80;;;;;;4990043;28;20034;-55
2022/01/17 09:47:08;;;;;;;24.92;11.75;;;17.70;53.80;;;;;;4997055;28;20058;-58
2022/01/17 09:49:39;;;;;;;27.27;11.70;;;17.70;53.80;;;;;;4998901;28;20037;-56
2022/01/17 09:54:41;;;;;;;21.20;9.30;;;17.70;53.80;;;;;;4984737;28;20719;-57
2022/01/17 09:57:07;;;;;;;18.25;9.35;;;17.70;53.70;;;;;;4991505;28;20088;-56
2022/01/17 09:59:33;;;;;;;24.30;9.98;;;17.70;53.70;;;;;;4985106;28;20038;-55
2022/01/17 10:01:59;;;;;;;20.38;9.80;;;17.70;53.70;;;;;;4990968;28;20034;-58
2022/01/17 10:04:24;;;;;;;18.60;9.10;;;17.70;53.70;;;;;;4981093;28;20034;-56
2022/01/17 10:06:54;;;;;;;22.67;9.63;;;17.70;53.70;;;;;;4995720;28;20061;-56
2022/01/17 10:09:24;;;;;;;15.60;8.15;;;17.70;53.70;;;;;;4982797;28;20128;-57
2022/01/17 10:12:12;;;;;;;21.60;8.50;;;17.70;53.70;;;;;;4995333;28;20045;-58
2022/01/17 10:14:42;;;;;;;18.15;8.60;;;17.70;53.80;;;;;;4994058;28;20070;-57
2022/01/17 10:17:17;;;;;;;13.25;7.60;;;17.70;53.80;;;;;;4983751;28;20026;-57
2022/01/17 10:19:43;;;;;;;18.65;8.23;;;17.80;53.90;;;;;;4997516;28;20041;-57
2022/01/17 10:22:19;;;;;;;15.48;7.53;;;17.70;53.80;;;;;;4994898;28;20034;-57
2022/01/17 10:25:03;;;;;;;15.23;6.85;;;17.70;53.80;;;;;;4984038;28;20035;-57
2022/01/17 10:35:27;;;;;;;11.45;6.43;;;17.80;53.70;;;;;;4998035;28;20029;-57
2022/01/17 10:37:56;;;;;;;14.07;6.68;;;17.80;53.60;;;;;;4983995;28;20030;-57
2022/01/17 10:40:21;;;;;;;11.52;5.95;;;17.80;53.70;;;;;;4995061;28;20026;-57
2022/01/17 10:42:48;;;;;;;10.45;6.32;;;17.80;53.80;;;;;;4983118;28;20029;-57
2022/01/17 10:45:19;;;;;;;14.60;5.65;;;17.80;54.00;;;;;;4983642;28;20049;-56
2022/01/17 10:47:45;;;;;;;13.30;5.50;;;17.80;54.20;;;;;;5001875;28;20080;-58
2022/01/17 10:50:16;;;;;;;9.40;5.20;;;17.80;54.50;;;;;;4975012;28;20065;-55
2022/01/17 10:52:47;;;;;;;10.63;5.35;;;17.80;54.90;;;;;;5000432;28;20026;-58
2022/01/17 10:55:24;;;;;;;7.75;5.40;;;17.80;55.30;;;;;;4995217;28;20022;-54
2022/01/17 10:57:55;;;;;;;9.27;5.03;;;17.80;55.40;;;;;;4993627;28;20041;-57
2022/01/17 11:00:22;;;;;;;12.20;5.20;;;17.80;55.40;;;;;;4999269;28;20030;-57
2022/01/17 11:03:02;;;;;;;10.63;4.82;;;17.80;55.50;;;;;;4998655;28;20033;-57
2022/01/17 11:05:28;;;;;;;12.50;5.38;;;17.80;55.50;;;;;;4983179;28;20488;-57
2022/01/17 11:08:00;;;;;;;11.25;4.68;;;17.70;55.40;;;;;;4999704;28;20060;-57
2022/01/17 11:10:27;;;;;;;14.43;5.07;;;17.70;55.40;;;;;;4992946;28;20038;-57
2022/01/17 11:12:55;;;;;;;8.65;4.38;;;17.70;55.40;;;;;;4998304;28;20380;-57
2022/01/17 11:15:21;;;;;;;8.15;4.18;;;17.70;55.40;;;;;;4984844;28;20080;-57
2022/01/17 11:17:50;;;;;;;8.75;4.30;;;17.70;55.40;;;;;;4985752;28;20550;-55
2022/01/17 11:20:16;;;;;;;9.05;4.10;;;17.70;55.40;;;;;;4983912;28;20817;-57
2022/01/17 11:22:43;;;;;;;11.57;4.45;;;17.60;55.40;;;;;;4994464;28;20042;-57
2022/01/17 11:25:11;;;;;;;10.07;4.47;;;17.70;55.40;;;;;;4995343;28;20023;-57
2022/01/17 11:27:36;;;;;;;10.38;4.47;;;17.70;55.40;;;;;;4999901;28;20117;-57
2022/01/17 11:30:02;;;;;;;10.77;4.10;;;17.60;55.30;;;;;;4993601;28;20459;-57
2022/01/17 11:32:28;;;;;;;11.68;4.35;;;17.70;55.40;;;;;;4984136;28;20431;-57
2022/01/17 11:34:55;;;;;;;9.77;3.83;;;17.60;55.20;;;;;;4993148;28;20116;-57
2022/01/17 11:37:20;;;;;;;8.40;3.80;;;17.70;55.30;;;;;;4998012;28;20033;-56
2022/01/17 11:39:53;;;;;;;9.55;4.05;;;17.60;55.20;;;;;;5001192;28;20030;-55
2022/01/17 11:42:48;;;;;;;6.18;3.55;;;17.60;55.20;;;;;;4992681;28;20050;-56
2022/01/17 11:45:23;;;;;;;8.68;4.15;;;17.60;55.20;;;;;;4965704;28;20030;-58
2022/01/17 11:47:52;;;;;;;5.17;3.10;;;17.60;55.30;;;;;;4999791;28;20085;-57
2022/01/17 11:50:37;;;;;;;7.75;3.58;;;17.60;55.30;;;;;;4991415;28;20050;-58
2022/01/17 11:53:11;;;;;;;10.17;3.90;;;17.50;55.30;;;;;;4985020;28;20037;-64
2022/01/17 11:55:40;;;;;;;5.20;3.38;;;17.60;55.30;;;;;;4992069;28;20022;-56
2022/01/17 11:58:26;;;;;;;8.93;3.28;;;17.60;55.40;;;;;;4991017;28;20026;-58
2022/01/17 12:00:59;;;;;;;7.57;3.15;;;17.60;55.40;;;;;;4981581;28;20463;-58
2022/01/17 12:03:26;;;;;;;7.82;3.53;;;17.50;55.30;;;;;;4994260;28;20027;-57
2022/01/17 12:05:55;;;;;;;6.40;3.15;;;17.50;55.30;;;;;;4990738;28;20026;-57
2022/01/17 12:08:22;;;;;;;6.05;2.45;;;17.50;55.40;;;;;;4987017;28;20022;-56
2022/01/17 12:10:50;;;;;;;6.75;3.10;;;17.50;55.40;;;;;;4983198;28;20490;-56
2022/01/17 12:13:18;;;;;;;6.25;2.88;;;17.50;55.40;;;;;;4991879;28;20100;-58
2022/01/17 12:16:07;;;;;;;5.43;2.88;;;17.50;55.50;;;;;;4999082;28;20057;-55
2022/01/17 12:19:03;;;;;;;4.50;2.30;;;17.50;55.50;;;;;;4988786;28;20679;-56
2022/01/17 12:21:43;;;;;;;6.53;2.75;;;17.50;55.50;;;;;;4992219;28;20116;-57
2022/01/17 12:24:14;;;;;;;6.22;3.00;;;17.50;55.50;;;;;;4984718;28;20034;-58
2022/01/17 12:26:40;;;;;;;3.78;2.42;;;17.50;55.50;;;;;;4994592;28;20031;-58
2022/01/17 12:29:05;;;;;;;4.47;2.20;;;17.40;55.60;;;;;;4989207;28;20050;-55
2022/01/17 12:31:37;;;;;;;6.15;2.88;;;17.50;55.70;;;;;;4994873;28;20647;-56
2022/01/17 12:34:15;;;;;;;7.07;2.95;;;17.50;55.70;;;;;;4985770;28;20493;-58
2022/01/17 12:36:42;;;;;;;4.90;2.17;;;17.50;55.80;;;;;;4992074;28;20499;-55
2022/01/17 12:39:29;;;;;;;4.75;2.17;;;17.50;55.80;;;;;;4996055;28;20041;-57
2022/01/17 12:41:59;;;;;;;5.60;2.45;;;17.40;56.50;;;;;;4992588;28;20046;-56
2022/01/17 12:44:26;;;;;;;4.38;2.60;;;17.40;56.00;;;;;;4986288;28;20396;-57
2022/01/17 12:46:58;;;;;;;4.75;2.00;;;17.40;56.10;;;;;;5000153;28;20038;-57
2022/01/17 12:49:23;;;;;;;3.97;1.90;;;17.50;56.00;;;;;;4997121;28;20403;-56
2022/01/17 12:51:50;;;;;;;3.95;2.10;;;17.50;56.00;;;;;;4984919;28;20038;-57
2022/01/17 12:54:18;;;;;;;4.10;2.20;;;17.50;55.80;;;;;;4988050;28;20096;-55
2022/01/17 12:56:44;;;;;;;4.18;2.28;;;17.50;55.80;;;;;;4989538;28;20037;-57
2022/01/17 12:59:09;;;;;;;4.68;2.05;;;17.60;55.80;;;;;;4981181;28;20103;-58
2022/01/17 13:01:39;;;;;;;3.00;1.92;;;17.60;55.80;;;;;;4993132;28;20033;-57
2022/01/17 13:04:06;;;;;;;4.88;2.08;;;17.60;55.70;;;;;;4980919;28;20061;-55
2022/01/17 13:06:32;;;;;;;5.43;2.13;;;17.70;55.60;;;;;;4993660;28;20049;-56
2022/01/17 13:08:59;;;;;;;6.18;1.83;;;17.70;55.40;;;;;;4984577;28;20038;-57
2022/01/17 13:11:25;;;;;;;3.95;1.85;;;17.80;55.30;;;;;;4997005;28;20057;-58